TimeEST,TemperatureF,Dew PointF,Humidity,Sea Level PressureIn,VisibilityMPH,Wind Direction,Wind SpeedMPH,Gust SpeedMPH,PrecipitationIn,Events,Conditions,WindDirDegrees,DateUTC
12:51 AM,21.9,18.0,85,30.17,10.0,SW,9.2,-,N/A,,Overcast,230,2012-12-12 05:51:00
1:51 AM,21.0,17.1,85,30.19,10.0,SW,8.1,-,N/A,,Scattered Clouds,230,2012-12-12 06:51:00
2:51 AM,18.0,16.0,92,30.21,10.0,SSW,4.6,-,N/A,,Clear,200,2012-12-12 07:51:00
3:51 AM,17.1,15.1,92,30.22,10.0,Calm,Calm,-,N/A,,Clear,0,2012-12-12 08:51:00
4:51 AM,12.9,12.0,96,30.23,10.0,Calm,Calm,-,N/A,,Clear,0,2012-12-12 09:51:00
5:51 AM,10.9,9.0,92,30.25,10.0,Calm,Calm,-,N/A,,Partly Cloudy,0,2012-12-12 10:51:00
6:51 AM,15.1,12.9,91,30.27,10.0,Calm,Calm,-,N/A,,Overcast,0,2012-12-12 11:51:00
8:51 AM,21.9,19.9,92,30.28,6.0,SW,8.1,-,N/A,,Overcast,230,2012-12-12 13:51:00
8:59 AM,23.0,19.4,86,30.20,1.8,SW,6.9,-,0.00,Snow,Light Snow,230,2012-12-12 13:59:00
9:19 AM,23.0,21.2,93,30.20,1.0,SW,6.9,-,0.00,Snow,Light Snow,220,2012-12-12 14:19:00
9:44 AM,24.8,21.2,86,30.20,0.5,SW,4.6,-,0.00,Fog-Snow,Snow,230,2012-12-12 14:44:00
9:51 AM,24.1,21.9,91,30.29,0.8,SW,5.8,-,0.00,Snow,Light Snow,220,2012-12-12 14:51:00
9:59 AM,24.8,23.0,93,30.22,1.0,SW,6.9,-,0.00,Snow,Light Snow,220,2012-12-12 14:59:00
10:15 AM,24.8,24.8,100,30.22,2.0,SSW,5.8,-,0.00,Snow,Light Snow,210,2012-12-12 15:15:00
10:28 AM,24.8,23.0,93,30.22,1.2,SSW,8.1,-,0.01,Snow,Light Snow,210,2012-12-12 15:28:00
10:43 AM,24.8,23.0,93,30.21,3.0,SSW,6.9,-,0.01,Snow,Light Snow,210,2012-12-12 15:43:00
10:51 AM,25.0,24.1,96,30.29,6.0,SSW,5.8,-,0.01,,Overcast,210,2012-12-12 15:51:00
11:06 AM,26.6,23.0,86,30.21,10.0,SSW,6.9,-,N/A,,Overcast,200,2012-12-12 16:06:00
11:15 AM,26.6,24.8,93,30.21,10.0,SW,9.2,-,N/A,,Overcast,220,2012-12-12 16:15:00
11:51 AM,28.0,25.0,88,30.28,10.0,SW,6.9,-,N/A,,Overcast,230,2012-12-12 16:51:00
12:26 PM,28.4,26.6,93,30.21,10.0,SW,6.9,-,N/A,,Overcast,230,2012-12-12 17:26:00
12:51 PM,28.9,25.0,85,30.28,10.0,SW,9.2,-,N/A,,Overcast,230,2012-12-12 17:51:00
2:13 PM,30.2,26.6,86,30.22,1.5,SW,8.1,-,0.00,Snow,Light Snow,230,2012-12-12 19:13:00
2:22 PM,30.2,26.6,86,30.22,0.8,SW,6.9,-,0.00,Snow,Light Snow,230,2012-12-12 19:22:00
2:26 PM,30.2,26.6,86,30.23,2.0,WSW,6.9,-,0.00,Snow,Light Snow,240,2012-12-12 19:26:00
2:40 PM,28.4,26.6,93,30.23,0.8,WSW,5.8,-,0.00,Snow,Light Snow,240,2012-12-12 19:40:00
2:51 PM,30.0,27.0,88,30.31,1.5,SW,9.2,-,0.00,Snow,Light Snow,230,2012-12-12 19:51:00
2:57 PM,30.2,26.6,86,30.23,2.5,SW,9.2,-,0.00,Snow,Light Snow,230,2012-12-12 19:57:00
3:01 PM,30.2,26.6,86,30.24,3.0,WSW,6.9,-,0.00,Snow,Light Snow,240,2012-12-12 20:01:00
3:14 PM,30.2,26.6,86,30.24,9.0,SW,8.1,-,0.00,,Overcast,230,2012-12-12 20:14:00
3:44 PM,30.2,26.6,86,30.25,10.0,WSW,8.1,-,0.00,,Mostly Cloudy,240,2012-12-12 20:44:00
3:51 PM,28.9,26.1,89,30.33,10.0,WSW,8.1,-,0.00,,Mostly Cloudy,240,2012-12-12 20:51:00
4:51 PM,28.0,25.0,88,30.35,3.0,SW,6.9,-,0.00,Snow,Light Snow,220,2012-12-12 21:51:00
5:10 PM,28.4,24.8,86,30.26,9.0,SW,6.9,-,0.00,,Overcast,230,2012-12-12 22:10:00
5:35 PM,26.6,24.8,93,30.26,9.0,SW,5.8,-,0.00,,Mostly Cloudy,220,2012-12-12 22:35:00
5:47 PM,26.6,24.8,93,30.26,8.0,SW,4.6,-,0.00,,Overcast,230,2012-12-12 22:47:00
5:51 PM,27.0,26.1,96,30.35,8.0,SW,4.6,-,0.00,,Overcast,230,2012-12-12 22:51:00
6:15 PM,26.6,26.6,100,30.26,5.0,SW,4.6,-,0.00,Snow,Light Snow,220,2012-12-12 23:15:00
6:51 PM,28.0,26.1,92,30.35,9.0,WSW,4.6,-,0.00,,Overcast,240,2012-12-12 23:51:00
7:51 PM,28.9,26.1,89,30.36,9.0,WSW,5.8,-,N/A,,Overcast,240,2012-12-13 00:51:00
8:06 PM,28.4,26.6,93,30.28,9.0,SW,4.6,-,N/A,,Overcast,230,2012-12-13 01:06:00
8:47 PM,28.4,26.6,93,30.28,7.0,SW,4.6,-,N/A,,Overcast,230,2012-12-13 01:47:00
8:51 PM,28.9,26.1,89,30.35,6.0,SW,4.6,-,N/A,,Overcast,230,2012-12-13 01:51:00
9:17 PM,28.4,26.6,93,30.29,7.0,SW,4.6,-,0.00,,Overcast,230,2012-12-13 02:17:00
9:51 PM,28.9,27.0,92,30.37,10.0,SW,4.6,-,0.00,,Overcast,230,2012-12-13 02:51:00
10:51 PM,27.0,26.1,96,30.37,9.0,WSW,4.6,-,N/A,,Mostly Cloudy,240,2012-12-13 03:51:00
11:02 PM,28.4,26.6,93,30.29,9.0,WSW,4.6,-,N/A,,Mostly Cloudy,240,2012-12-13 04:02:00
11:51 PM,28.0,26.1,92,30.37,8.0,SW,4.6,-,N/A,,Overcast,220,2012-12-13 04:51:00